sensor_id;sensor_type;location;lat;lon;timestamp;pressure;altitude;pressure_sealevel;temperature;humidity
2841;BME280;53423;49.224;12.074;2023-01-26T00:01:24;98326.09;;;1.44;69.71
2841;BME280;53423;49.224;12.074;2023-01-26T00:03:54;98316.69;;;1.57;69.77
2841;BME280;53423;49.224;12.074;2023-01-26T00:06:24;98305.25;;;1.61;69.19
2841;BME280;53423;49.224;12.074;2023-01-26T00:08:55;98303.31;;;1.51;70.19
2841;BME280;53423;49.224;12.074;2023-01-26T00:11:25;98300.34;;;1.71;70.18
2841;BME280;53423;49.224;12.074;2023-01-26T00:13:53;98290.00;;;1.85;69.61
2841;BME280;53423;49.224;12.074;2023-01-26T00:16:22;98296.25;;;1.81;68.66
2841;BME280;53423;49.224;12.074;2023-01-26T00:18:50;98295.88;;;1.87;69.14
2841;BME280;53423;49.224;12.074;2023-01-26T00:21:20;98297.81;;;1.83;68.74
2841;BME280;53423;49.224;12.074;2023-01-26T00:23:48;98303.06;;;1.82;68.97
2841;BME280;53423;49.224;12.074;2023-01-26T00:26:19;98295.88;;;1.87;68.70
2841;BME280;53423;49.224;12.074;2023-01-26T00:28:48;98295.31;;;1.82;69.17
2841;BME280;53423;49.224;12.074;2023-01-26T00:31:17;98300.94;;;1.88;68.92
2841;BME280;53423;49.224;12.074;2023-01-26T00:33:46;98300.59;;;1.80;68.20
2841;BME280;53423;49.224;12.074;2023-01-26T00:36:14;98303.50;;;1.48;70.27
2841;BME280;53423;49.224;12.074;2023-01-26T00:38:42;98300.00;;;1.49;70.30
2841;BME280;53423;49.224;12.074;2023-01-26T00:41:10;98288.19;;;1.59;69.64
2841;BME280;53423;49.224;12.074;2023-01-26T00:44:00;98288.63;;;1.65;70.01
2841;BME280;53423;49.224;12.074;2023-01-26T00:46:28;98292.69;;;1.69;69.74
2841;BME280;53423;49.224;12.074;2023-01-26T00:48:56;98277.69;;;1.48;70.69
2841;BME280;53423;49.224;12.074;2023-01-26T00:51:26;98280.63;;;1.56;70.50
2841;BME280;53423;49.224;12.074;2023-01-26T00:53:54;98274.81;;;1.52;70.36
2841;BME280;53423;49.224;12.074;2023-01-26T00:56:21;98269.38;;;1.14;70.73
2841;BME280;53423;49.224;12.074;2023-01-26T00:58:53;98265.03;;;1.43;70.93
2841;BME280;53423;49.224;12.074;2023-01-26T01:01:22;98265.47;;;1.64;69.93
2841;BME280;53423;49.224;12.074;2023-01-26T01:03:50;98264.13;;;1.44;70.28
2841;BME280;53423;49.224;12.074;2023-01-26T01:06:18;98262.47;;;1.29;70.86
2841;BME280;53423;49.224;12.074;2023-01-26T01:08:45;98267.91;;;1.53;70.51
2841;BME280;53423;49.224;12.074;2023-01-26T01:11:13;98259.84;;;1.71;69.69
2841;BME280;53423;49.224;12.074;2023-01-26T01:13:41;98264.06;;;1.72;70.02
2841;BME280;53423;49.224;12.074;2023-01-26T01:16:11;98259.88;;;1.84;69.14
2841;BME280;53423;49.224;12.074;2023-01-26T01:18:42;98254.34;;;1.90;69.06
2841;BME280;53423;49.224;12.074;2023-01-26T01:21:11;98251.28;;;1.97;68.84
2841;BME280;53423;49.224;12.074;2023-01-26T01:23:39;98254.63;;;1.85;69.52
2841;BME280;53423;49.224;12.074;2023-01-26T01:26:08;98255.34;;;1.87;69.75
2841;BME280;53423;49.224;12.074;2023-01-26T01:28:37;98254.16;;;1.93;69.41
2841;BME280;53423;49.224;12.074;2023-01-26T01:31:05;98254.97;;;1.93;68.93
2841;BME280;53423;49.224;12.074;2023-01-26T01:33:34;98257.47;;;1.95;68.90
2841;BME280;53423;49.224;12.074;2023-01-26T01:36:04;98255.91;;;1.92;68.91
2841;BME280;53423;49.224;12.074;2023-01-26T01:38:33;98253.66;;;2.00;68.45
2841;BME280;53423;49.224;12.074;2023-01-26T01:41:01;98246.84;;;1.59;70.04
2841;BME280;53423;49.224;12.074;2023-01-26T01:43:29;98236.91;;;1.53;69.81
2841;BME280;53423;49.224;12.074;2023-01-26T01:45:58;98236.66;;;1.29;70.99
2841;BME280;53423;49.224;12.074;2023-01-26T01:48:28;98239.25;;;1.29;69.99
2841;BME280;53423;49.224;12.074;2023-01-26T01:51:01;98232.19;;;1.45;70.83
2841;BME280;53423;49.224;12.074;2023-01-26T01:53:34;98232.94;;;1.47;69.89
2841;BME280;53423;49.224;12.074;2023-01-26T01:56:07;98224.94;;;1.38;70.29
2841;BME280;53423;49.224;12.074;2023-01-26T01:58:39;98223.63;;;1.45;70.69
2841;BME280;53423;49.224;12.074;2023-01-26T02:01:08;98219.72;;;1.66;70.13
2841;BME280;53423;49.224;12.074;2023-01-26T02:03:37;98212.41;;;1.72;69.61
2841;BME280;53423;49.224;12.074;2023-01-26T02:06:09;98212.63;;;1.82;68.70
2841;BME280;53423;49.224;12.074;2023-01-26T02:08:43;98206.66;;;1.81;69.03
2841;BME280;53423;49.224;12.074;2023-01-26T02:11:14;98210.25;;;1.52;70.32
2841;BME280;53423;49.224;12.074;2023-01-26T02:13:45;98205.00;;;1.40;71.21
2841;BME280;53423;49.224;12.074;2023-01-26T02:16:14;98208.22;;;1.43;70.67
2841;BME280;53423;49.224;12.074;2023-01-26T02:18:42;98216.38;;;1.23;71.26
2841;BME280;53423;49.224;12.074;2023-01-26T02:21:14;98204.94;;;1.13;71.97
2841;BME280;53423;49.224;12.074;2023-01-26T02:23:57;98200.97;;;1.36;71.22
2841;BME280;53423;49.224;12.074;2023-01-26T02:26:31;98200.13;;;1.35;71.56
2841;BME280;53423;49.224;12.074;2023-01-26T02:29:00;98194.22;;;1.47;71.10
2841;BME280;53423;49.224;12.074;2023-01-26T02:31:29;98187.03;;;1.38;70.75
2841;BME280;53423;49.224;12.074;2023-01-26T02:33:57;98190.19;;;1.29;71.34
2841;BME280;53423;49.224;12.074;2023-01-26T02:36:27;98190.34;;;1.40;70.61
2841;BME280;53423;49.224;12.074;2023-01-26T02:39:08;98182.47;;;1.15;71.84
2841;BME280;53423;49.224;12.074;2023-01-26T02:41:42;98175.28;;;1.47;70.07
2841;BME280;53423;49.224;12.074;2023-01-26T02:44:28;98178.72;;;1.47;70.71
2841;BME280;53423;49.224;12.074;2023-01-26T02:46:57;98184.97;;;1.43;70.06
2841;BME280;53423;49.224;12.074;2023-01-26T02:49:24;98180.91;;;1.53;70.27
2841;BME280;53423;49.224;12.074;2023-01-26T02:52:10;98178.16;;;1.56;69.84
2841;BME280;53423;49.224;12.074;2023-01-26T02:54:37;98168.41;;;1.60;69.53
2841;BME280;53423;49.224;12.074;2023-01-26T02:57:24;98167.28;;;1.51;70.15
2841;BME280;53423;49.224;12.074;2023-01-26T02:59:52;98174.53;;;1.18;70.36
2841;BME280;53423;49.224;12.074;2023-01-26T03:02:20;98173.88;;;1.28;70.35
2841;BME280;53423;49.224;12.074;2023-01-26T03:04:48;98173.56;;;1.33;69.69
2841;BME280;53423;49.224;12.074;2023-01-26T03:07:16;98164.38;;;1.29;70.67
2841;BME280;53423;49.224;12.074;2023-01-26T03:09:44;98171.22;;;0.88;71.88
2841;BME280;53423;49.224;12.074;2023-01-26T03:12:11;98170.66;;;1.11;71.36
2841;BME280;53423;49.224;12.074;2023-01-26T03:14:40;98166.38;;;1.38;71.32
2841;BME280;53423;49.224;12.074;2023-01-26T03:17:08;98166.38;;;1.38;70.40
2841;BME280;53423;49.224;12.074;2023-01-26T03:19:36;98163.69;;;1.40;70.79
2841;BME280;53423;49.224;12.074;2023-01-26T03:22:22;98158.81;;;1.35;70.42
2841;BME280;53423;49.224;12.074;2023-01-26T03:25:08;98155.56;;;1.46;70.30
2841;BME280;53423;49.224;12.074;2023-01-26T03:27:53;98162.56;;;1.44;70.28
2841;BME280;53423;49.224;12.074;2023-01-26T03:30:22;98161.69;;;1.31;71.09
2841;BME280;53423;49.224;12.074;2023-01-26T03:32:50;98161.03;;;1.41;70.16
2841;BME280;53423;49.224;12.074;2023-01-26T03:35:18;98154.84;;;1.44;70.03
2841;BME280;53423;49.224;12.074;2023-01-26T03:37:48;98151.84;;;1.50;70.28
2841;BME280;53423;49.224;12.074;2023-01-26T03:40:20;98153.34;;;1.40;69.87
2841;BME280;53423;49.224;12.074;2023-01-26T03:43:08;98162.53;;;1.31;70.34
2841;BME280;53423;49.224;12.074;2023-01-26T03:45:55;98152.97;;;1.19;70.23
2841;BME280;53423;49.224;12.074;2023-01-26T03:48:40;98155.44;;;1.20;71.25
2841;BME280;53423;49.224;12.074;2023-01-26T03:51:25;98152.56;;;1.25;70.35
2841;BME280;53423;49.224;12.074;2023-01-26T03:54:11;98149.78;;;1.28;70.08
2841;BME280;53423;49.224;12.074;2023-01-26T03:56:56;98153.06;;;1.17;71.21
2841;BME280;53423;49.224;12.074;2023-01-26T03:59:24;98152.88;;;1.06;71.24
2841;BME280;53423;49.224;12.074;2023-01-26T04:02:06;98150.97;;;1.37;70.93
2841;BME280;53423;49.224;12.074;2023-01-26T04:04:52;98159.31;;;1.13;70.75
2841;BME280;53423;49.224;12.074;2023-01-26T04:07:37;98161.91;;;1.27;70.25
2841;BME280;53423;49.224;12.074;2023-01-26T04:10:23;98159.78;;;1.20;70.69
2841;BME280;53423;49.224;12.074;2023-01-26T04:12:51;98151.16;;;1.34;70.65
2841;BME280;53423;49.224;12.074;2023-01-26T04:15:36;98148.44;;;1.22;70.35
2841;BME280;53423;49.224;12.074;2023-01-26T04:18:23;98147.28;;;1.00;71.60
2841;BME280;53423;49.224;12.074;2023-01-26T04:21:08;98146.06;;;1.05;71.88
2841;BME280;53423;49.224;12.074;2023-01-26T04:23:56;98140.31;;;1.14;70.79
2841;BME280;53423;49.224;12.074;2023-01-26T04:26:25;98141.91;;;1.17;71.30
2841;BME280;53423;49.224;12.074;2023-01-26T04:29:00;98144.25;;;1.34;70.34
2841;BME280;53423;49.224;12.074;2023-01-26T04:31:29;98138.28;;;1.19;70.38
2841;BME280;53423;49.224;12.074;2023-01-26T04:33:58;98138.94;;;1.23;70.65
2841;BME280;53423;49.224;12.074;2023-01-26T04:36:26;98141.94;;;1.29;70.53
2841;BME280;53423;49.224;12.074;2023-01-26T04:38:54;98141.88;;;1.31;70.74
2841;BME280;53423;49.224;12.074;2023-01-26T04:41:22;98130.13;;;1.40;70.78
2841;BME280;53423;49.224;12.074;2023-01-26T04:43:50;98133.72;;;1.51;69.87
2841;BME280;53423;49.224;12.074;2023-01-26T04:46:18;98133.06;;;1.48;70.04
2841;BME280;53423;49.224;12.074;2023-01-26T04:48:45;98129.97;;;1.28;70.36
2841;BME280;53423;49.224;12.074;2023-01-26T04:51:16;98131.50;;;1.45;70.35
2841;BME280;53423;49.224;12.074;2023-01-26T04:53:45;98123.06;;;1.29;70.54
2841;BME280;53423;49.224;12.074;2023-01-26T04:56:18;98129.97;;;1.28;70.03
2841;BME280;53423;49.224;12.074;2023-01-26T04:58:46;98131.72;;;1.28;70.53
2841;BME280;53423;49.224;12.074;2023-01-26T05:01:14;98126.53;;;1.42;69.98
2841;BME280;53423;49.224;12.074;2023-01-26T05:03:42;98129.13;;;1.55;69.79
2841;BME280;53423;49.224;12.074;2023-01-26T05:06:10;98128.47;;;1.39;70.07
2841;BME280;53423;49.224;12.074;2023-01-26T05:08:39;98128.59;;;1.50;69.30
2841;BME280;53423;49.224;12.074;2023-01-26T05:11:07;98130.59;;;1.46;69.20
2841;BME280;53423;49.224;12.074;2023-01-26T05:13:34;98129.88;;;1.30;69.94
2841;BME280;53423;49.224;12.074;2023-01-26T05:16:03;98130.84;;;1.15;69.98
2841;BME280;53423;49.224;12.074;2023-01-26T05:18:31;98134.50;;;1.25;69.14
2841;BME280;53423;49.224;12.074;2023-01-26T05:20:59;98136.19;;;1.12;69.77
2841;BME280;53423;49.224;12.074;2023-01-26T05:23:27;98132.97;;;1.08;69.21
2841;BME280;53423;49.224;12.074;2023-01-26T05:25:56;98135.34;;;1.11;68.29
2841;BME280;53423;49.224;12.074;2023-01-26T05:28:24;98136.59;;;0.92;69.84
2841;BME280;53423;49.224;12.074;2023-01-26T05:30:51;98133.91;;;1.07;68.95
2841;BME280;53423;49.224;12.074;2023-01-26T05:33:19;98131.22;;;1.09;68.97
2841;BME280;53423;49.224;12.074;2023-01-26T05:35:47;98135.84;;;1.04;68.62
2841;BME280;53423;49.224;12.074;2023-01-26T05:38:15;98139.13;;;1.06;68.71
2841;BME280;53423;49.224;12.074;2023-01-26T05:40:43;98135.03;;;1.30;68.50
2841;BME280;53423;49.224;12.074;2023-01-26T05:43:12;98137.16;;;1.38;68.16
2841;BME280;53423;49.224;12.074;2023-01-26T05:45:40;98137.28;;;1.22;68.92
2841;BME280;53423;49.224;12.074;2023-01-26T05:48:08;98133.63;;;1.39;68.40
2841;BME280;53423;49.224;12.074;2023-01-26T05:50:36;98134.03;;;1.33;69.13
2841;BME280;53423;49.224;12.074;2023-01-26T05:53:04;98133.50;;;1.54;67.67
2841;BME280;53423;49.224;12.074;2023-01-26T05:55:31;98131.25;;;1.62;67.89
2841;BME280;53423;49.224;12.074;2023-01-26T05:57:59;98131.47;;;1.59;66.88
2841;BME280;53423;49.224;12.074;2023-01-26T06:00:29;98129.31;;;1.66;67.59
2841;BME280;53423;49.224;12.074;2023-01-26T06:02:56;98134.06;;;1.45;67.64
2841;BME280;53423;49.224;12.074;2023-01-26T06:05:24;98121.13;;;1.59;66.93
2841;BME280;53423;49.224;12.074;2023-01-26T06:07:52;98133.72;;;1.64;66.23
2841;BME280;53423;49.224;12.074;2023-01-26T06:10:19;98139.31;;;1.70;66.83
2841;BME280;53423;49.224;12.074;2023-01-26T06:12:47;98134.91;;;1.72;66.27
2841;BME280;53423;49.224;12.074;2023-01-26T06:15:15;98134.31;;;1.81;66.47
2841;BME280;53423;49.224;12.074;2023-01-26T06:17:44;98134.50;;;1.78;66.24
2841;BME280;53423;49.224;12.074;2023-01-26T06:20:12;98133.06;;;1.74;66.91
2841;BME280;53423;49.224;12.074;2023-01-26T06:22:40;98131.53;;;1.84;66.25
2841;BME280;53423;49.224;12.074;2023-01-26T06:25:08;98129.09;;;1.69;66.62
2841;BME280;53423;49.224;12.074;2023-01-26T06:27:36;98126.47;;;1.83;67.09
2841;BME280;53423;49.224;12.074;2023-01-26T06:30:09;98117.38;;;1.90;66.58
2841;BME280;53423;49.224;12.074;2023-01-26T06:32:37;98122.31;;;1.80;67.44
2841;BME280;53423;49.224;12.074;2023-01-26T06:35:07;98124.56;;;1.72;67.07
2841;BME280;53423;49.224;12.074;2023-01-26T06:37:35;98123.94;;;1.69;67.09
2841;BME280;53423;49.224;12.074;2023-01-26T06:40:03;98124.78;;;1.82;67.10
2841;BME280;53423;49.224;12.074;2023-01-26T06:42:31;98122.72;;;1.74;67.58
2841;BME280;53423;49.224;12.074;2023-01-26T06:44:59;98124.47;;;1.74;67.34
2841;BME280;53423;49.224;12.074;2023-01-26T06:47:27;98120.13;;;1.74;67.56
2841;BME280;53423;49.224;12.074;2023-01-26T06:49:55;98118.19;;;1.90;66.83
2841;BME280;53423;49.224;12.074;2023-01-26T06:52:29;98122.72;;;1.74;67.66
2841;BME280;53423;49.224;12.074;2023-01-26T06:54:58;98120.34;;;1.71;68.00
2841;BME280;53423;49.224;12.074;2023-01-26T06:57:26;98115.34;;;1.68;68.17
2841;BME280;53423;49.224;12.074;2023-01-26T06:59:54;98116.81;;;1.72;67.59
2841;BME280;53423;49.224;12.074;2023-01-26T07:02:23;98115.41;;;1.54;67.06
2841;BME280;53423;49.224;12.074;2023-01-26T07:04:51;98122.28;;;1.68;68.40
2841;BME280;53423;49.224;12.074;2023-01-26T07:07:18;98119.00;;;1.78;68.16
2841;BME280;53423;49.224;12.074;2023-01-26T07:09:48;98121.56;;;1.78;67.21
2841;BME280;53423;49.224;12.074;2023-01-26T07:12:15;98119.03;;;1.91;66.88
2841;BME280;53423;49.224;12.074;2023-01-26T07:14:43;98119.97;;;1.90;67.55
2841;BME280;53423;49.224;12.074;2023-01-26T07:17:11;98116.13;;;1.95;68.03
2841;BME280;53423;49.224;12.074;2023-01-26T07:19:39;98115.44;;;2.06;67.42
2841;BME280;53423;49.224;12.074;2023-01-26T07:22:07;98113.34;;;1.98;67.66
2841;BME280;53423;49.224;12.074;2023-01-26T07:24:35;98106.84;;;2.05;67.00
2841;BME280;53423;49.224;12.074;2023-01-26T07:27:04;98110.91;;;2.09;67.83
2841;BME280;53423;49.224;12.074;2023-01-26T07:29:32;98103.97;;;2.22;66.73
2841;BME280;53423;49.224;12.074;2023-01-26T07:32:00;98111.53;;;2.25;67.29
2841;BME280;53423;49.224;12.074;2023-01-26T07:34:28;98111.72;;;2.22;66.94
2841;BME280;53423;49.224;12.074;2023-01-26T07:36:55;98115.84;;;2.12;67.10
2841;BME280;53423;49.224;12.074;2023-01-26T07:39:23;98112.22;;;2.02;68.48
2841;BME280;53423;49.224;12.074;2023-01-26T07:41:52;98111.22;;;2.05;68.05
2841;BME280;53423;49.224;12.074;2023-01-26T07:44:21;98110.91;;;2.09;67.70
2841;BME280;53423;49.224;12.074;2023-01-26T07:46:49;98110.06;;;2.09;67.67
2841;BME280;53423;49.224;12.074;2023-01-26T07:49:16;98114.41;;;2.08;68.42
2841;BME280;53423;49.224;12.074;2023-01-26T07:51:44;98107.41;;;2.23;68.01
2841;BME280;53423;49.224;12.074;2023-01-26T07:54:12;98097.97;;;2.09;67.72
2841;BME280;53423;49.224;12.074;2023-01-26T07:56:40;98102.72;;;2.15;68.38
2841;BME280;53423;49.224;12.074;2023-01-26T07:59:10;98108.41;;;2.20;68.44
2841;BME280;53423;49.224;12.074;2023-01-26T08:01:39;98112.97;;;2.04;68.66
2841;BME280;53423;49.224;12.074;2023-01-26T08:04:07;98113.88;;;2.03;69.01
2841;BME280;53423;49.224;12.074;2023-01-26T08:06:35;98108.28;;;1.97;67.83
2841;BME280;53423;49.224;12.074;2023-01-26T08:09:03;98112.13;;;2.04;68.09
2841;BME280;53423;49.224;12.074;2023-01-26T08:11:30;98105.72;;;2.09;67.46
2841;BME280;53423;49.224;12.074;2023-01-26T08:13:58;98118.63;;;1.97;68.47
2841;BME280;53423;49.224;12.074;2023-01-26T08:16:26;98118.03;;;2.06;68.00
2841;BME280;53423;49.224;12.074;2023-01-26T08:18:55;98117.41;;;2.02;67.83
2841;BME280;53423;49.224;12.074;2023-01-26T08:21:23;98121.88;;;2.13;68.01
2841;BME280;53423;49.224;12.074;2023-01-26T08:23:51;98123.31;;;2.04;68.17
2841;BME280;53423;49.224;12.074;2023-01-26T08:26:19;98118.56;;;2.11;67.76
2841;BME280;53423;49.224;12.074;2023-01-26T08:28:47;98112.16;;;2.16;67.89
2841;BME280;53423;49.224;12.074;2023-01-26T08:31:16;98103.88;;;2.24;67.71
2841;BME280;53423;49.224;12.074;2023-01-26T08:33:46;98108.44;;;2.33;66.70
2841;BME280;53423;49.224;12.074;2023-01-26T08:36:17;98105.84;;;2.33;66.65
2841;BME280;53423;49.224;12.074;2023-01-26T08:38:48;98109.47;;;2.30;67.24
2841;BME280;53423;49.224;12.074;2023-01-26T08:41:16;98116.28;;;2.06;66.87
2841;BME280;53423;49.224;12.074;2023-01-26T08:43:43;98109.44;;;2.05;67.69
2841;BME280;53423;49.224;12.074;2023-01-26T08:46:11;98115.03;;;2.12;67.55
2841;BME280;53423;49.224;12.074;2023-01-26T08:48:39;98111.00;;;2.20;67.46
2841;BME280;53423;49.224;12.074;2023-01-26T08:51:07;98105.75;;;2.34;67.01
2841;BME280;53423;49.224;12.074;2023-01-26T08:53:36;98112.88;;;2.31;66.49
2841;BME280;53423;49.224;12.074;2023-01-26T08:56:06;98113.28;;;2.37;65.99
2841;BME280;53423;49.224;12.074;2023-01-26T08:58:35;98101.41;;;2.35;66.19
2841;BME280;53423;49.224;12.074;2023-01-26T09:01:03;98097.91;;;2.23;66.87
2841;BME280;53423;49.224;12.074;2023-01-26T09:03:31;98095.31;;;2.23;67.50
2841;BME280;53423;49.224;12.074;2023-01-26T09:06:00;98092.00;;;2.21;66.19
2841;BME280;53423;49.224;12.074;2023-01-26T09:08:27;98101.81;;;2.29;65.17
2841;BME280;53423;49.224;12.074;2023-01-26T09:10:56;98097.06;;;2.23;65.71
2841;BME280;53423;49.224;12.074;2023-01-26T09:13:24;98095.69;;;2.17;65.52
2841;BME280;53423;49.224;12.074;2023-01-26T09:15:53;98101.09;;;2.14;66.16
2841;BME280;53423;49.224;12.074;2023-01-26T09:18:20;98097.06;;;2.23;65.86
2841;BME280;53423;49.224;12.074;2023-01-26T09:20:51;98091.78;;;2.49;64.84
2841;BME280;53423;49.224;12.074;2023-01-26T09:23:21;98096.44;;;2.44;65.34
2841;BME280;53423;49.224;12.074;2023-01-26T09:25:51;98093.84;;;2.44;65.26
2841;BME280;53423;49.224;12.074;2023-01-26T09:28:21;98098.81;;;2.35;65.52
2841;BME280;53423;49.224;12.074;2023-01-26T09:30:48;98105.13;;;2.43;65.47
2841;BME280;53423;49.224;12.074;2023-01-26T09:33:17;98108.84;;;2.39;65.18
2841;BME280;53423;49.224;12.074;2023-01-26T09:35:47;98098.81;;;2.47;64.47
2841;BME280;53423;49.224;12.074;2023-01-26T09:38:15;98096.94;;;2.49;64.69
2841;BME280;53423;49.224;12.074;2023-01-26T09:40:54;98104.38;;;2.54;64.24
2841;BME280;53423;49.224;12.074;2023-01-26T09:43:36;98103.66;;;2.52;64.30
2841;BME280;53423;49.224;12.074;2023-01-26T09:46:15;98108.44;;;2.58;63.87
2841;BME280;53423;49.224;12.074;2023-01-26T09:48:48;98100.03;;;2.54;64.21
2841;BME280;53423;49.224;12.074;2023-01-26T09:51:24;98105.84;;;2.58;64.88
2841;BME280;53423;49.224;12.074;2023-01-26T09:53:57;98101.69;;;2.55;64.21
2841;BME280;53423;49.224;12.074;2023-01-26T09:56:27;98095.59;;;2.57;64.50
2841;BME280;53423;49.224;12.074;2023-01-26T09:59:03;98082.44;;;2.60;64.07
2841;BME280;53423;49.224;12.074;2023-01-26T10:01:37;98091.97;;;2.59;63.52
2841;BME280;53423;49.224;12.074;2023-01-26T10:04:14;98085.97;;;2.59;63.75
2841;BME280;53423;49.224;12.074;2023-01-26T10:06:50;98083.91;;;2.64;63.13
2841;BME280;53423;49.224;12.074;2023-01-26T10:09:22;98078.50;;;2.67;63.34
2841;BME280;53423;49.224;12.074;2023-01-26T10:11:53;98086.28;;;2.67;62.97
2841;BME280;53423;49.224;12.074;2023-01-26T10:14:30;98080.25;;;2.66;63.86
2841;BME280;53423;49.224;12.074;2023-01-26T10:17:00;98077.69;;;2.66;64.01
2841;BME280;53423;49.224;12.074;2023-01-26T10:19:33;98074.56;;;2.61;64.98
2841;BME280;53423;49.224;12.074;2023-01-26T10:22:06;98065.19;;;2.60;64.68
2841;BME280;53423;49.224;12.074;2023-01-26T10:24:38;98067.22;;;2.68;63.50
2841;BME280;53423;49.224;12.074;2023-01-26T10:27:09;98069.19;;;2.64;64.96
2841;BME280;53423;49.224;12.074;2023-01-26T10:29:40;98063.31;;;2.62;64.37
2841;BME280;53423;49.224;12.074;2023-01-26T10:32:12;98072.84;;;2.36;64.45
2841;BME280;53423;49.224;12.074;2023-01-26T10:34:40;98077.28;;;2.34;63.97
2841;BME280;53423;49.224;12.074;2023-01-26T10:37:19;98082.66;;;2.44;64.24
2841;BME280;53423;49.224;12.074;2023-01-26T10:40:03;98073.84;;;2.59;63.91
2841;BME280;53423;49.224;12.074;2023-01-26T10:42:34;98069.41;;;2.61;63.47
2841;BME280;53423;49.224;12.074;2023-01-26T10:45:05;98070.88;;;2.52;62.94
2841;BME280;53423;49.224;12.074;2023-01-26T10:47:34;98074.50;;;2.37;63.70
2841;BME280;53423;49.224;12.074;2023-01-26T10:50:20;98070.25;;;2.49;63.17
2841;BME280;53423;49.224;12.074;2023-01-26T10:52:57;98066.94;;;2.47;62.45
2841;BME280;53423;49.224;12.074;2023-01-26T10:55:25;98064.63;;;2.68;62.75
2841;BME280;53423;49.224;12.074;2023-01-26T10:57:53;98064.63;;;2.80;62.34
2841;BME280;53423;49.224;12.074;2023-01-26T11:00:28;98065.53;;;2.92;61.34
2841;BME280;53423;49.224;12.074;2023-01-26T11:03:03;98063.53;;;2.95;60.99
2841;BME280;53423;49.224;12.074;2023-01-26T11:05:32;98058.06;;;3.23;60.41
2841;BME280;53423;49.224;12.074;2023-01-26T11:08:00;98057.78;;;3.15;60.51
2841;BME280;53423;49.224;12.074;2023-01-26T11:10:30;98056.56;;;3.08;61.73
2841;BME280;53423;49.224;12.074;2023-01-26T11:13:07;98053.72;;;2.88;64.03
2841;BME280;53423;49.224;12.074;2023-01-26T11:15:38;98050.59;;;2.95;64.07
2841;BME280;53423;49.224;12.074;2023-01-26T11:18:14;98049.53;;;2.98;64.18
2841;BME280;53423;49.224;12.074;2023-01-26T11:20:49;98048.63;;;2.99;63.72
2841;BME280;53423;49.224;12.074;2023-01-26T11:23:26;98043.22;;;2.66;65.74
2841;BME280;53423;49.224;12.074;2023-01-26T11:26:21;98040.22;;;2.72;66.08
2841;BME280;53423;49.224;12.074;2023-01-26T11:29:02;98034.13;;;2.47;65.46
2841;BME280;53423;49.224;12.074;2023-01-26T11:31:45;98036.09;;;2.57;66.19
2841;BME280;53423;49.224;12.074;2023-01-26T11:34:23;98034.47;;;2.79;66.04
2841;BME280;53423;49.224;12.074;2023-01-26T11:37:13;98033.50;;;2.57;66.32
2841;BME280;53423;49.224;12.074;2023-01-26T11:39:54;98033.44;;;2.33;66.34
2841;BME280;53423;49.224;12.074;2023-01-26T11:42:34;98018.84;;;2.57;66.24
2841;BME280;53423;49.224;12.074;2023-01-26T11:45:16;98020.53;;;2.69;65.86
2841;BME280;53423;49.224;12.074;2023-01-26T11:47:58;98027.53;;;2.92;65.09
2841;BME280;53423;49.224;12.074;2023-01-26T11:50:33;98023.16;;;2.93;65.20
2841;BME280;53423;49.224;12.074;2023-01-26T11:53:30;98012.91;;;2.91;64.88
2841;BME280;53423;49.224;12.074;2023-01-26T11:56:12;98018.34;;;2.76;64.72
2841;BME280;53423;49.224;12.074;2023-01-26T11:58:46;98021.00;;;2.87;64.85
2841;BME280;53423;49.224;12.074;2023-01-26T12:01:21;98007.50;;;2.94;63.77
2841;BME280;53423;49.224;12.074;2023-01-26T12:03:55;98017.75;;;3.19;62.14
2841;BME280;53423;49.224;12.074;2023-01-26T12:06:28;98012.28;;;3.00;61.00
2841;BME280;53423;49.224;12.074;2023-01-26T12:09:01;98014.63;;;2.80;62.94
2841;BME280;53423;49.224;12.074;2023-01-26T12:11:32;98011.22;;;3.03;62.03
2841;BME280;53423;49.224;12.074;2023-01-26T12:14:09;98015.34;;;3.05;62.07
2841;BME280;53423;49.224;12.074;2023-01-26T12:16:48;98005.75;;;2.95;62.87
2841;BME280;53423;49.224;12.074;2023-01-26T12:19:38;98004.78;;;3.08;62.18
2841;BME280;53423;49.224;12.074;2023-01-26T12:22:14;97997.09;;;2.83;62.65
2841;BME280;53423;49.224;12.074;2023-01-26T12:24:50;97998.00;;;2.95;61.86
2841;BME280;53423;49.224;12.074;2023-01-26T12:27:42;97998.88;;;2.83;63.15
2841;BME280;53423;49.224;12.074;2023-01-26T12:30:23;97996.22;;;2.72;63.23
2841;BME280;53423;49.224;12.074;2023-01-26T12:32:53;98005.81;;;2.08;64.88
2841;BME280;53423;49.224;12.074;2023-01-26T12:35:31;97995.28;;;2.24;64.35
2841;BME280;53423;49.224;12.074;2023-01-26T12:38:07;97998.88;;;2.34;63.34
2841;BME280;53423;49.224;12.074;2023-01-26T12:40:54;97989.81;;;2.28;64.11
2841;BME280;53423;49.224;12.074;2023-01-26T12:43:35;97989.16;;;2.50;63.80
2841;BME280;53423;49.224;12.074;2023-01-26T12:46:06;97984.16;;;2.47;63.54
2841;BME280;53423;49.224;12.074;2023-01-26T12:48:39;97980.31;;;2.52;63.43
2841;BME280;53423;49.224;12.074;2023-01-26T12:51:14;97984.41;;;2.68;63.14
2841;BME280;53423;49.224;12.074;2023-01-26T12:53:50;97979.03;;;2.71;62.39
2841;BME280;53423;49.224;12.074;2023-01-26T12:56:23;97982.50;;;2.59;62.58
2841;BME280;53423;49.224;12.074;2023-01-26T12:58:54;97973.13;;;2.45;63.53
2841;BME280;53423;49.224;12.074;2023-01-26T13:01:26;97971.38;;;2.20;63.30
2841;BME280;53423;49.224;12.074;2023-01-26T13:04:07;97968.63;;;2.23;64.51
2841;BME280;53423;49.224;12.074;2023-01-26T13:06:37;97973.13;;;2.45;62.94
2841;BME280;53423;49.224;12.074;2023-01-26T13:09:19;97969.91;;;2.41;63.50
2841;BME280;53423;49.224;12.074;2023-01-26T13:11:52;97968.84;;;2.44;63.45
2841;BME280;53423;49.224;12.074;2023-01-26T13:17:41;97965.00;;;2.01;64.35
2841;BME280;53423;49.224;12.074;2023-01-26T13:20:22;97966.78;;;1.63;66.15
2841;BME280;53423;49.224;12.074;2023-01-26T13:22:52;97958.81;;;1.78;65.84
2841;BME280;53423;49.224;12.074;2023-01-26T13:25:27;97968.22;;;2.04;64.80
2841;BME280;53423;49.224;12.074;2023-01-26T13:27:57;97956.44;;;1.88;64.76
2841;BME280;53423;49.224;12.074;2023-01-26T13:30:31;97955.00;;;1.96;65.70
2841;BME280;53423;49.224;12.074;2023-01-26T13:33:19;97963.22;;;2.26;63.65
2841;BME280;53423;49.224;12.074;2023-01-26T13:35:49;97951.66;;;2.19;64.23
2841;BME280;53423;49.224;12.074;2023-01-26T13:38:28;97952.88;;;2.14;64.97